createdAt,value
2022-09-15T00:02:10.413Z,0.00
2022-09-15T00:07:10.073Z,0.00
2022-09-15T00:12:10.023Z,0.00
2022-09-15T00:17:10.004Z,0.00
2022-09-15T00:22:09.864Z,0.00
2022-09-15T00:27:09.839Z,0.00
2022-09-15T00:32:09.967Z,0.00
2022-09-15T00:37:09.746Z,0.00
2022-09-15T00:42:09.634Z,0.00
2022-09-15T00:47:19.083Z,0.00
2022-09-15T00:52:10.465Z,0.00
2022-09-15T00:57:09.441Z,0.00
2022-09-15T01:02:09.381Z,0.00
2022-09-15T01:07:09.309Z,0.00
2022-09-15T01:12:09.226Z,0.00
2022-09-15T01:17:09.140Z,0.00
2022-09-15T01:22:09.068Z,0.00
2022-09-15T01:27:24.442Z,0.00
2022-09-15T01:32:09.958Z,0.00
2022-09-15T01:37:08.906Z,0.00
2022-09-15T01:42:08.882Z,0.00
2022-09-15T01:47:08.774Z,0.00
2022-09-15T01:52:08.933Z,0.00
2022-09-15T01:57:08.634Z,0.00
2022-09-15T02:02:08.610Z,0.00
2022-09-15T02:07:08.497Z,0.00
2022-09-15T02:12:08.481Z,0.00
2022-09-15T02:17:08.372Z,0.00
2022-09-15T02:22:08.291Z,0.00
2022-09-15T02:27:08.261Z,0.00
2022-09-15T02:32:08.233Z,0.00
2022-09-15T02:37:08.099Z,0.00
2022-09-15T02:42:08.024Z,0.00
2022-09-15T02:47:07.981Z,0.00
2022-09-15T02:52:07.901Z,0.00
2022-09-15T02:57:08.004Z,0.00
2022-09-15T03:02:07.769Z,0.00
2022-09-15T03:07:07.734Z,0.00
2022-09-15T03:12:07.617Z,0.00
2022-09-15T03:17:07.597Z,0.00
2022-09-15T03:22:07.515Z,0.00
2022-09-15T03:27:07.513Z,0.00
2022-09-15T03:32:07.384Z,0.00
2022-09-15T03:37:07.308Z,0.00
2022-09-15T03:42:07.246Z,0.00
2022-09-15T03:47:07.218Z,0.00
2022-09-15T03:52:07.113Z,0.00
2022-09-15T03:57:07.050Z,0.00
2022-09-15T04:02:07.020Z,0.00
2022-09-15T04:07:06.970Z,0.00
2022-09-15T04:12:06.976Z,0.00
2022-09-15T04:17:06.772Z,0.00
2022-09-15T04:22:06.709Z,0.00
2022-09-15T04:27:06.641Z,0.00
2022-09-15T04:32:06.621Z,0.00
2022-09-15T04:37:06.536Z,0.00
2022-09-15T04:42:06.449Z,5.62
2022-09-15T04:47:06.493Z,11.25
2022-09-15T04:52:09.631Z,11.25
2022-09-15T04:57:06.282Z,16.88
2022-09-15T05:02:06.245Z,16.88
2022-09-15T05:07:06.294Z,22.50
2022-09-15T05:12:06.089Z,28.12
2022-09-15T05:17:06.004Z,39.38
2022-09-15T05:22:05.935Z,45.00
2022-09-15T05:27:05.910Z,50.62
2022-09-15T05:32:05.783Z,61.88
2022-09-15T05:37:05.708Z,78.75
2022-09-15T05:42:05.659Z,95.62
2022-09-15T05:47:05.598Z,95.62
2022-09-15T05:52:05.525Z,84.38
2022-09-15T05:57:05.483Z,101.25
2022-09-15T06:02:05.449Z,135.00
2022-09-15T06:07:05.315Z,146.25
2022-09-15T06:12:05.415Z,174.38
2022-09-15T06:17:05.211Z,208.12
2022-09-15T06:22:05.158Z,225.00
2022-09-15T06:27:05.073Z,253.12
2022-09-15T06:32:05.157Z,286.88
2022-09-15T06:37:04.940Z,393.75
2022-09-15T06:42:05.922Z,601.88
2022-09-15T06:47:04.778Z,978.75
2022-09-15T06:52:04.751Z,1406.25
2022-09-15T06:57:04.691Z,663.75
2022-09-15T07:02:05.373Z,922.50
2022-09-15T07:07:04.574Z,933.75
2022-09-15T07:12:04.499Z,911.25
2022-09-15T07:17:04.703Z,984.38
2022-09-15T07:22:04.374Z,905.62
2022-09-15T07:27:04.279Z,855.00
2022-09-15T07:32:04.303Z,613.12
2022-09-15T07:37:04.193Z,883.12
2022-09-15T07:42:04.056Z,691.88
2022-09-15T07:47:04.046Z,641.25
2022-09-15T07:52:04.955Z,680.62
2022-09-15T07:57:03.895Z,815.62
2022-09-15T08:02:03.862Z,1198.12
2022-09-15T08:07:03.780Z,579.38
2022-09-15T08:12:03.735Z,703.12
2022-09-15T08:17:07.022Z,967.50
2022-09-15T08:22:04.694Z,506.25
2022-09-15T08:27:03.504Z,472.50
2022-09-15T08:32:03.429Z,320.62
2022-09-15T08:37:03.338Z,450.00
2022-09-15T08:42:03.266Z,551.25
2022-09-15T08:47:03.235Z,731.25
2022-09-15T08:52:03.158Z,742.50
2022-09-15T08:57:03.070Z,928.12
2022-09-15T09:02:03.122Z,1001.25
2022-09-15T09:07:02.945Z,928.12
2022-09-15T09:12:02.883Z,821.25
2022-09-15T09:17:02.852Z,798.75
2022-09-15T09:22:02.797Z,635.62
2022-09-15T09:27:02.911Z,691.88
2022-09-15T09:32:02.619Z,731.25
2022-09-15T09:37:02.579Z,748.12
2022-09-15T09:42:02.526Z,742.50
2022-09-15T09:47:02.446Z,630.00
2022-09-15T09:52:02.393Z,523.12
2022-09-15T09:57:02.323Z,472.50
2022-09-15T10:02:02.233Z,405.00
2022-09-15T10:07:02.211Z,382.50
2022-09-15T10:12:02.263Z,292.50
2022-09-15T10:17:02.161Z,180.00
2022-09-15T10:22:02.025Z,180.00
2022-09-15T10:27:02.247Z,185.62
2022-09-15T10:32:01.984Z,258.75
2022-09-15T10:37:01.914Z,337.50
2022-09-15T10:42:01.736Z,556.88
2022-09-15T10:47:01.671Z,607.50
2022-09-15T10:52:01.584Z,663.75
2022-09-15T10:57:01.523Z,742.50
2022-09-15T11:02:01.501Z,793.12
2022-09-15T11:07:01.404Z,849.38
2022-09-15T11:12:01.323Z,776.25
2022-09-15T11:17:01.253Z,663.75
2022-09-15T11:22:01.221Z,725.62
2022-09-15T11:27:01.107Z,821.25
2022-09-15T11:37:01.085Z,810.00
2022-09-15T11:42:00.948Z,804.38
2022-09-15T11:47:00.912Z,781.88
2022-09-15T11:52:00.799Z,804.38
2022-09-15T11:57:00.782Z,781.88
2022-09-15T12:02:00.700Z,736.88
2022-09-15T12:12:00.521Z,714.38
2022-09-15T12:17:00.559Z,748.12
2022-09-15T12:22:00.394Z,742.50
2022-09-15T12:27:00.341Z,708.75
2022-09-15T12:32:00.264Z,686.25
2022-09-15T12:42:00.213Z,630.00
2022-09-15T12:47:00.131Z,568.12
2022-09-15T12:52:00.068Z,511.88
2022-09-15T12:57:00.007Z,421.88
2022-09-15T13:01:59.913Z,213.75
2022-09-15T13:06:59.793Z,151.88
2022-09-15T13:11:59.772Z,135.00
2022-09-15T13:16:59.678Z,112.50
2022-09-15T13:21:59.619Z,78.75
2022-09-15T13:26:59.548Z,67.50
2022-09-15T13:31:59.479Z,61.88
2022-09-15T13:42:00.339Z,129.38
2022-09-15T13:46:59.682Z,78.75
2022-09-15T13:51:59.202Z,56.25
2022-09-15T13:56:59.172Z,45.00
2022-09-15T14:01:59.177Z,101.25
2022-09-15T14:07:00.982Z,112.50
2022-09-15T14:11:58.955Z,84.38
2022-09-15T14:16:58.968Z,78.75
2022-09-15T14:21:58.978Z,106.88
2022-09-15T14:26:58.761Z,123.75
2022-09-15T14:31:58.756Z,123.75
2022-09-15T14:36:58.635Z,112.50
2022-09-15T14:46:58.498Z,236.25
2022-09-15T14:51:58.590Z,202.50
2022-09-15T14:56:58.367Z,202.50
2022-09-15T15:01:58.368Z,196.88
2022-09-15T15:06:58.240Z,151.88
2022-09-15T15:11:58.195Z,196.88
2022-09-15T15:16:58.229Z,225.00
2022-09-15T15:21:59.378Z,174.38
2022-09-15T15:26:58.001Z,118.12
2022-09-15T15:31:57.934Z,84.38
2022-09-15T15:36:57.844Z,61.88
2022-09-15T15:41:57.879Z,56.25
2022-09-15T15:46:57.712Z,50.62
2022-09-15T15:51:57.638Z,45.00
2022-09-15T15:56:57.713Z,45.00
2022-09-15T16:01:57.633Z,33.75
2022-09-15T16:06:57.464Z,39.38
2022-09-15T16:16:58.265Z,101.25
2022-09-15T16:21:57.247Z,101.25
2022-09-15T16:26:57.226Z,95.62
2022-09-15T16:31:57.158Z,95.62
2022-09-15T16:36:57.019Z,84.38
2022-09-15T16:41:57.046Z,61.88
2022-09-15T16:46:56.977Z,33.75
2022-09-15T16:51:56.867Z,22.50
2022-09-15T16:56:56.791Z,22.50
2022-09-15T17:01:56.919Z,22.50
2022-09-15T17:06:56.646Z,16.88
2022-09-15T17:11:56.591Z,11.25
2022-09-15T17:16:56.563Z,5.62
2022-09-15T17:21:56.494Z,5.62
2022-09-15T17:26:56.405Z,0.00
2022-09-15T17:31:56.310Z,0.00
2022-09-15T17:36:56.303Z,0.00
2022-09-15T17:41:56.291Z,0.00
2022-09-15T17:46:56.196Z,0.00
2022-09-15T17:51:56.052Z,0.00
2022-09-15T17:56:55.995Z,0.00
2022-09-15T18:01:56.024Z,0.00
2022-09-15T18:06:56.044Z,0.00
2022-09-15T18:11:55.797Z,0.00
2022-09-15T18:16:55.823Z,0.00
2022-09-15T18:21:55.682Z,0.00
2022-09-15T18:26:55.607Z,0.00
2022-09-15T18:31:55.536Z,0.00
2022-09-15T18:36:55.476Z,0.00
2022-09-15T18:41:55.431Z,0.00
2022-09-15T18:46:55.317Z,0.00
2022-09-15T18:51:55.281Z,0.00
2022-09-15T18:56:55.207Z,0.00
2022-09-15T19:01:55.508Z,0.00
2022-09-15T19:06:55.084Z,0.00
2022-09-15T19:11:55.198Z,0.00
2022-09-15T19:16:58.187Z,0.00
2022-09-15T19:21:54.901Z,0.00
2022-09-15T19:26:54.790Z,0.00
2022-09-15T19:31:54.759Z,0.00
2022-09-15T19:36:54.681Z,0.00
2022-09-15T19:41:54.633Z,0.00
2022-09-15T19:46:54.521Z,0.00
2022-09-15T19:51:54.495Z,0.00
2022-09-15T19:56:54.490Z,0.00
2022-09-15T20:01:54.332Z,0.00
2022-09-15T20:06:54.285Z,0.00
2022-09-15T20:11:54.212Z,0.00
2022-09-15T20:16:57.357Z,0.00
2022-09-15T20:21:55.068Z,0.00
2022-09-15T20:26:54.019Z,0.00
2022-09-15T20:31:53.999Z,0.00
2022-09-15T20:36:53.950Z,0.00
2022-09-15T20:41:53.843Z,0.00
2022-09-15T20:46:53.750Z,0.00
2022-09-15T20:51:53.676Z,0.00
2022-09-15T20:56:53.625Z,0.00
2022-09-15T21:01:53.565Z,0.00
2022-09-15T21:06:53.467Z,0.00
2022-09-15T21:11:53.777Z,0.00
2022-09-15T21:16:53.395Z,0.00
2022-09-15T21:21:53.624Z,0.00
2022-09-15T21:26:53.282Z,0.00
2022-09-15T21:31:53.217Z,0.00
2022-09-15T21:36:53.084Z,0.00
2022-09-15T21:41:53.068Z,0.00
2022-09-15T21:46:53.083Z,0.00
2022-09-15T21:51:52.922Z,0.00
2022-09-15T21:56:52.936Z,0.00
2022-09-15T22:01:52.815Z,0.00
2022-09-15T22:06:52.739Z,0.00
2022-09-15T22:11:52.640Z,0.00
2022-09-15T22:16:52.580Z,0.00
2022-09-15T22:21:52.523Z,0.00
2022-09-15T22:26:52.625Z,0.00
2022-09-15T22:31:52.423Z,0.00
2022-09-15T22:36:52.410Z,0.00
2022-09-15T22:41:52.248Z,0.00
2022-09-15T22:46:52.193Z,0.00
2022-09-15T22:51:52.120Z,0.00
2022-09-15T22:56:52.063Z,0.00
2022-09-15T23:01:52.007Z,0.00
2022-09-15T23:06:51.910Z,0.00
2022-09-15T23:11:51.850Z,0.00
2022-09-15T23:16:51.863Z,0.00
2022-09-15T23:21:51.726Z,0.00
2022-09-15T23:26:51.798Z,0.00
2022-09-15T23:31:51.830Z,0.00
2022-09-15T23:36:51.499Z,0.00
2022-09-15T23:41:51.471Z,0.00
2022-09-15T23:46:51.485Z,0.00
2022-09-15T23:51:51.381Z,0.00
2022-09-15T23:56:51.238Z,0.00
